sensor_id;sensor_type;location;lat;lon;timestamp;P1;durP1;ratioP1;P2;durP2;ratioP2
42094;SDS011;27753;55.724;37.612;2023-05-21T00:01:21;10.07;;;7.43;;
42094;SDS011;27753;55.724;37.612;2023-05-21T00:03:47;11.13;;;8.18;;
42094;SDS011;27753;55.724;37.612;2023-05-21T00:06:14;11.23;;;7.33;;
42094;SDS011;27753;55.724;37.612;2023-05-21T00:08:40;9.82;;;7.72;;
42094;SDS011;27753;55.724;37.612;2023-05-21T00:11:07;10.57;;;7.47;;
42094;SDS011;27753;55.724;37.612;2023-05-21T00:13:33;9.55;;;8.10;;
42094;SDS011;27753;55.724;37.612;2023-05-21T00:15:59;9.98;;;7.60;;
42094;SDS011;27753;55.724;37.612;2023-05-21T00:18:25;9.73;;;8.02;;
42094;SDS011;27753;55.724;37.612;2023-05-21T00:20:51;9.02;;;7.80;;
42094;SDS011;27753;55.724;37.612;2023-05-21T00:23:17;13.45;;;8.73;;
42094;SDS011;27753;55.724;37.612;2023-05-21T00:25:43;8.82;;;7.78;;
42094;SDS011;27753;55.724;37.612;2023-05-21T00:28:10;11.52;;;8.27;;
42094;SDS011;27753;55.724;37.612;2023-05-21T00:30:37;10.63;;;7.45;;
42094;SDS011;27753;55.724;37.612;2023-05-21T00:33:03;11.15;;;7.88;;
42094;SDS011;27753;55.724;37.612;2023-05-21T00:35:29;9.07;;;8.13;;
42094;SDS011;27753;55.724;37.612;2023-05-21T00:37:55;9.35;;;8.20;;
42094;SDS011;27753;55.724;37.612;2023-05-21T00:40:22;9.93;;;8.70;;
42094;SDS011;27753;55.724;37.612;2023-05-21T00:42:48;11.73;;;8.63;;
42094;SDS011;27753;55.724;37.612;2023-05-21T00:45:14;11.85;;;7.95;;
42094;SDS011;27753;55.724;37.612;2023-05-21T00:47:40;10.63;;;7.45;;
42094;SDS011;27753;55.724;37.612;2023-05-21T00:50:07;8.50;;;7.43;;
42094;SDS011;27753;55.724;37.612;2023-05-21T00:52:34;11.73;;;7.82;;
42094;SDS011;27753;55.724;37.612;2023-05-21T00:55:06;11.55;;;8.45;;
42094;SDS011;27753;55.724;37.612;2023-05-21T00:57:33;15.60;;;8.30;;
42094;SDS011;27753;55.724;37.612;2023-05-21T01:00:01;11.55;;;8.70;;
42094;SDS011;27753;55.724;37.612;2023-05-21T01:02:30;10.35;;;8.35;;
42094;SDS011;27753;55.724;37.612;2023-05-21T01:07:24;10.30;;;7.90;;
42094;SDS011;27753;55.724;37.612;2023-05-21T01:09:50;9.52;;;7.82;;
42094;SDS011;27753;55.724;37.612;2023-05-21T01:14:47;9.00;;;7.65;;
42094;SDS011;27753;55.724;37.612;2023-05-21T01:17:14;12.32;;;8.68;;
42094;SDS011;27753;55.724;37.612;2023-05-21T01:19:41;8.52;;;7.72;;
42094;SDS011;27753;55.724;37.612;2023-05-21T01:22:10;9.82;;;8.13;;
42094;SDS011;27753;55.724;37.612;2023-05-21T01:24:38;10.70;;;8.63;;
42094;SDS011;27753;55.724;37.612;2023-05-21T01:27:06;9.55;;;8.10;;
42094;SDS011;27753;55.724;37.612;2023-05-21T01:29:34;9.32;;;8.32;;
42094;SDS011;27753;55.724;37.612;2023-05-21T01:40:24;11.45;;;10.25;;
42094;SDS011;27753;55.724;37.612;2023-05-21T01:43:02;12.23;;;10.05;;
42094;SDS011;27753;55.724;37.612;2023-05-21T01:45:31;11.85;;;10.38;;
42094;SDS011;27753;55.724;37.612;2023-05-21T01:48:00;11.95;;;10.32;;
42094;SDS011;27753;55.724;37.612;2023-05-21T01:50:30;11.18;;;9.77;;
42094;SDS011;27753;55.724;37.612;2023-05-21T01:52:56;12.73;;;11.43;;
42094;SDS011;27753;55.724;37.612;2023-05-21T01:55:22;17.27;;;12.55;;
42094;SDS011;27753;55.724;37.612;2023-05-21T01:57:50;14.18;;;12.13;;
42094;SDS011;27753;55.724;37.612;2023-05-21T02:00:18;15.73;;;12.35;;
42094;SDS011;27753;55.724;37.612;2023-05-21T02:02:48;15.63;;;13.27;;
42094;SDS011;27753;55.724;37.612;2023-05-21T02:05:14;14.23;;;12.77;;
42094;SDS011;27753;55.724;37.612;2023-05-21T02:07:46;16.08;;;14.48;;
42094;SDS011;27753;55.724;37.612;2023-05-21T02:10:16;14.90;;;12.95;;
42094;SDS011;27753;55.724;37.612;2023-05-21T02:12:42;15.45;;;13.00;;
42094;SDS011;27753;55.724;37.612;2023-05-21T02:15:08;19.30;;;13.45;;
42094;SDS011;27753;55.724;37.612;2023-05-21T02:17:35;16.33;;;12.65;;
42094;SDS011;27753;55.724;37.612;2023-05-21T02:22:42;15.40;;;12.52;;
42094;SDS011;27753;55.724;37.612;2023-05-21T02:25:10;15.77;;;14.05;;
42094;SDS011;27753;55.724;37.612;2023-05-21T02:27:37;15.05;;;12.80;;
42094;SDS011;27753;55.724;37.612;2023-05-21T02:30:06;16.33;;;13.82;;
42094;SDS011;27753;55.724;37.612;2023-05-21T02:32:35;15.65;;;13.65;;
42094;SDS011;27753;55.724;37.612;2023-05-21T02:35:01;13.35;;;11.98;;
42094;SDS011;27753;55.724;37.612;2023-05-21T02:37:28;15.65;;;14.02;;
42094;SDS011;27753;55.724;37.612;2023-05-21T02:39:57;17.98;;;14.25;;
42094;SDS011;27753;55.724;37.612;2023-05-21T02:42:24;14.80;;;12.75;;
42094;SDS011;27753;55.724;37.612;2023-05-21T02:44:50;15.88;;;14.23;;
42094;SDS011;27753;55.724;37.612;2023-05-21T02:47:19;18.42;;;13.00;;
42094;SDS011;27753;55.724;37.612;2023-05-21T02:49:48;15.77;;;13.75;;
42094;SDS011;27753;55.724;37.612;2023-05-21T02:52:16;15.63;;;13.32;;
42094;SDS011;27753;55.724;37.612;2023-05-21T02:54:43;15.95;;;13.40;;
42094;SDS011;27753;55.724;37.612;2023-05-21T02:57:11;17.10;;;14.85;;
42094;SDS011;27753;55.724;37.612;2023-05-21T02:59:37;20.02;;;15.38;;
42094;SDS011;27753;55.724;37.612;2023-05-21T03:02:03;21.45;;;16.83;;
42094;SDS011;27753;55.724;37.612;2023-05-21T03:04:29;20.88;;;16.85;;
42094;SDS011;27753;55.724;37.612;2023-05-21T03:06:55;20.67;;;18.45;;
42094;SDS011;27753;55.724;37.612;2023-05-21T03:09:26;22.15;;;18.13;;
42094;SDS011;27753;55.724;37.612;2023-05-21T03:11:52;19.83;;;16.38;;
42094;SDS011;27753;55.724;37.612;2023-05-21T03:14:18;22.55;;;17.75;;
42094;SDS011;27753;55.724;37.612;2023-05-21T03:16:47;18.95;;;16.38;;
42094;SDS011;27753;55.724;37.612;2023-05-21T03:19:13;19.85;;;15.98;;
42094;SDS011;27753;55.724;37.612;2023-05-21T03:21:40;23.25;;;16.75;;
42094;SDS011;27753;55.724;37.612;2023-05-21T03:24:07;19.65;;;17.55;;
42094;SDS011;27753;55.724;37.612;2023-05-21T03:26:37;20.65;;;16.10;;
42094;SDS011;27753;55.724;37.612;2023-05-21T03:29:03;19.02;;;15.45;;
42094;SDS011;27753;55.724;37.612;2023-05-21T03:31:29;18.35;;;15.18;;
42094;SDS011;27753;55.724;37.612;2023-05-21T03:33:55;22.92;;;17.13;;
42094;SDS011;27753;55.724;37.612;2023-05-21T03:36:23;17.55;;;15.75;;
42094;SDS011;27753;55.724;37.612;2023-05-21T03:38:48;28.15;;;19.80;;
42094;SDS011;27753;55.724;37.612;2023-05-21T03:41:14;23.05;;;18.30;;
42094;SDS011;27753;55.724;37.612;2023-05-21T03:43:40;22.65;;;19.15;;
42094;SDS011;27753;55.724;37.612;2023-05-21T03:46:06;21.42;;;17.55;;
42094;SDS011;27753;55.724;37.612;2023-05-21T03:48:32;20.33;;;17.60;;
42094;SDS011;27753;55.724;37.612;2023-05-21T03:50:58;21.15;;;15.82;;
42094;SDS011;27753;55.724;37.612;2023-05-21T03:53:24;19.60;;;16.48;;
42094;SDS011;27753;55.724;37.612;2023-05-21T03:55:49;29.00;;;19.90;;
42094;SDS011;27753;55.724;37.612;2023-05-21T03:58:22;21.20;;;17.02;;
42094;SDS011;27753;55.724;37.612;2023-05-21T04:00:48;28.95;;;22.95;;
42094;SDS011;27753;55.724;37.612;2023-05-21T04:03:14;19.13;;;14.10;;
42094;SDS011;27753;55.724;37.612;2023-05-21T04:05:43;17.63;;;13.48;;
42094;SDS011;27753;55.724;37.612;2023-05-21T04:08:11;18.08;;;13.85;;
42094;SDS011;27753;55.724;37.612;2023-05-21T04:10:38;16.80;;;13.77;;
42094;SDS011;27753;55.724;37.612;2023-05-21T04:13:04;16.08;;;12.52;;
42094;SDS011;27753;55.724;37.612;2023-05-21T04:15:31;15.15;;;13.15;;
42094;SDS011;27753;55.724;37.612;2023-05-21T04:17:58;15.07;;;11.68;;
42094;SDS011;27753;55.724;37.612;2023-05-21T04:20:25;14.52;;;11.80;;
42094;SDS011;27753;55.724;37.612;2023-05-21T04:22:53;17.10;;;12.57;;
42094;SDS011;27753;55.724;37.612;2023-05-21T04:25:19;14.10;;;11.60;;
42094;SDS011;27753;55.724;37.612;2023-05-21T04:27:45;18.30;;;13.13;;
42094;SDS011;27753;55.724;37.612;2023-05-21T04:30:12;15.85;;;13.13;;
42094;SDS011;27753;55.724;37.612;2023-05-21T04:32:38;16.63;;;13.68;;
42094;SDS011;27753;55.724;37.612;2023-05-21T04:35:04;19.63;;;15.38;;
42094;SDS011;27753;55.724;37.612;2023-05-21T04:37:30;17.33;;;14.13;;
42094;SDS011;27753;55.724;37.612;2023-05-21T04:39:59;20.33;;;16.00;;
42094;SDS011;27753;55.724;37.612;2023-05-21T04:42:26;20.63;;;17.02;;
42094;SDS011;27753;55.724;37.612;2023-05-21T04:44:55;20.30;;;16.08;;
42094;SDS011;27753;55.724;37.612;2023-05-21T04:49:49;24.75;;;18.90;;
42094;SDS011;27753;55.724;37.612;2023-05-21T04:52:15;22.90;;;17.30;;
42094;SDS011;27753;55.724;37.612;2023-05-21T04:54:41;22.73;;;17.38;;
42094;SDS011;27753;55.724;37.612;2023-05-21T04:57:09;25.42;;;17.33;;
42094;SDS011;27753;55.724;37.612;2023-05-21T04:59:35;17.90;;;15.82;;
42094;SDS011;27753;55.724;37.612;2023-05-21T05:02:01;20.00;;;16.17;;
42094;SDS011;27753;55.724;37.612;2023-05-21T05:04:27;17.05;;;14.95;;
42094;SDS011;27753;55.724;37.612;2023-05-21T05:06:53;21.60;;;16.30;;
42094;SDS011;27753;55.724;37.612;2023-05-21T05:09:19;17.73;;;15.82;;
42094;SDS011;27753;55.724;37.612;2023-05-21T05:11:49;12.25;;;10.98;;
42094;SDS011;27753;55.724;37.612;2023-05-21T05:14:15;13.73;;;12.30;;
42094;SDS011;27753;55.724;37.612;2023-05-21T05:16:42;14.02;;;11.38;;
42094;SDS011;27753;55.724;37.612;2023-05-21T05:19:08;12.82;;;11.50;;
42094;SDS011;27753;55.724;37.612;2023-05-21T05:21:34;17.58;;;12.93;;
42094;SDS011;27753;55.724;37.612;2023-05-21T05:24:00;13.65;;;11.70;;
42094;SDS011;27753;55.724;37.612;2023-05-21T05:26:26;13.18;;;11.27;;
42094;SDS011;27753;55.724;37.612;2023-05-21T05:28:53;14.10;;;12.13;;
42094;SDS011;27753;55.724;37.612;2023-05-21T05:31:19;13.73;;;12.23;;
42094;SDS011;27753;55.724;37.612;2023-05-21T05:33:46;25.17;;;17.02;;
42094;SDS011;27753;55.724;37.612;2023-05-21T05:36:13;17.90;;;11.65;;
42094;SDS011;27753;55.724;37.612;2023-05-21T05:38:39;16.73;;;12.15;;
42094;SDS011;27753;55.724;37.612;2023-05-21T05:41:04;14.15;;;11.80;;
42094;SDS011;27753;55.724;37.612;2023-05-21T05:43:30;15.90;;;11.27;;
42094;SDS011;27753;55.724;37.612;2023-05-21T05:45:56;15.90;;;12.60;;
42094;SDS011;27753;55.724;37.612;2023-05-21T05:48:23;11.82;;;10.60;;
42094;SDS011;27753;55.724;37.612;2023-05-21T05:50:48;13.30;;;11.10;;
42094;SDS011;27753;55.724;37.612;2023-05-21T05:53:19;13.75;;;12.07;;
42094;SDS011;27753;55.724;37.612;2023-05-21T05:55:45;15.48;;;12.20;;
42094;SDS011;27753;55.724;37.612;2023-05-21T05:58:11;13.82;;;12.43;;
42094;SDS011;27753;55.724;37.612;2023-05-21T06:00:37;13.60;;;12.25;;
42094;SDS011;27753;55.724;37.612;2023-05-21T06:03:03;13.98;;;11.52;;
42094;SDS011;27753;55.724;37.612;2023-05-21T06:05:30;12.50;;;11.20;;
42094;SDS011;27753;55.724;37.612;2023-05-21T06:07:56;21.63;;;14.30;;
42094;SDS011;27753;55.724;37.612;2023-05-21T06:10:23;13.80;;;11.35;;
42094;SDS011;27753;55.724;37.612;2023-05-21T06:12:50;16.70;;;12.57;;
42094;SDS011;27753;55.724;37.612;2023-05-21T06:15:16;16.40;;;13.68;;
42094;SDS011;27753;55.724;37.612;2023-05-21T06:17:43;17.38;;;11.45;;
42094;SDS011;27753;55.724;37.612;2023-05-21T06:20:09;16.48;;;12.65;;
42094;SDS011;27753;55.724;37.612;2023-05-21T06:22:36;12.83;;;10.37;;
42094;SDS011;27753;55.724;37.612;2023-05-21T06:25:02;11.07;;;9.90;;
42094;SDS011;27753;55.724;37.612;2023-05-21T06:27:29;15.15;;;12.25;;
42094;SDS011;27753;55.724;37.612;2023-05-21T06:29:57;13.52;;;11.57;;
42094;SDS011;27753;55.724;37.612;2023-05-21T06:32:23;12.45;;;10.55;;
42094;SDS011;27753;55.724;37.612;2023-05-21T06:34:49;12.88;;;9.40;;
42094;SDS011;27753;55.724;37.612;2023-05-21T06:37:17;9.90;;;8.52;;
42094;SDS011;27753;55.724;37.612;2023-05-21T06:39:44;8.88;;;7.97;;
42094;SDS011;27753;55.724;37.612;2023-05-21T06:42:10;12.02;;;8.32;;
42094;SDS011;27753;55.724;37.612;2023-05-21T06:44:36;10.10;;;8.20;;
42094;SDS011;27753;55.724;37.612;2023-05-21T06:47:02;11.13;;;7.97;;
42094;SDS011;27753;55.724;37.612;2023-05-21T06:49:30;9.32;;;7.57;;
42094;SDS011;27753;55.724;37.612;2023-05-21T06:51:57;11.63;;;10.43;;
42094;SDS011;27753;55.724;37.612;2023-05-21T06:54:22;8.85;;;7.13;;
42094;SDS011;27753;55.724;37.612;2023-05-21T06:56:48;13.30;;;8.38;;
42094;SDS011;27753;55.724;37.612;2023-05-21T06:59:14;7.88;;;7.07;;
42094;SDS011;27753;55.724;37.612;2023-05-21T07:01:41;11.15;;;9.48;;
42094;SDS011;27753;55.724;37.612;2023-05-21T07:04:11;7.15;;;6.45;;
42094;SDS011;27753;55.724;37.612;2023-05-21T07:06:37;8.95;;;6.97;;
42094;SDS011;27753;55.724;37.612;2023-05-21T07:09:03;11.00;;;9.43;;
42094;SDS011;27753;55.724;37.612;2023-05-21T07:11:30;9.47;;;6.40;;
42094;SDS011;27753;55.724;37.612;2023-05-21T07:13:57;11.35;;;6.38;;
42094;SDS011;27753;55.724;37.612;2023-05-21T07:16:27;9.13;;;7.38;;
42094;SDS011;27753;55.724;37.612;2023-05-21T07:18:53;8.75;;;6.38;;
42094;SDS011;27753;55.724;37.612;2023-05-21T07:21:20;10.63;;;7.00;;
42094;SDS011;27753;55.724;37.612;2023-05-21T07:23:46;9.23;;;7.07;;
42094;SDS011;27753;55.724;37.612;2023-05-21T07:26:15;7.25;;;6.30;;
42094;SDS011;27753;55.724;37.612;2023-05-21T07:28:41;8.23;;;6.93;;
42094;SDS011;27753;55.724;37.612;2023-05-21T07:31:08;10.18;;;7.03;;
42094;SDS011;27753;55.724;37.612;2023-05-21T07:33:36;8.85;;;6.22;;
42094;SDS011;27753;55.724;37.612;2023-05-21T07:36:02;7.82;;;6.20;;
42094;SDS011;27753;55.724;37.612;2023-05-21T07:38:28;7.60;;;6.53;;
42094;SDS011;27753;55.724;37.612;2023-05-21T07:43:22;7.05;;;6.35;;
42094;SDS011;27753;55.724;37.612;2023-05-21T07:45:48;14.60;;;8.20;;
42094;SDS011;27753;55.724;37.612;2023-05-21T07:48:14;17.92;;;9.07;;
42094;SDS011;27753;55.724;37.612;2023-05-21T07:50:40;7.82;;;6.55;;
42094;SDS011;27753;55.724;37.612;2023-05-21T07:53:06;8.55;;;6.15;;
42094;SDS011;27753;55.724;37.612;2023-05-21T07:55:32;7.90;;;6.35;;
42094;SDS011;27753;55.724;37.612;2023-05-21T07:57:58;10.15;;;5.63;;
42094;SDS011;27753;55.724;37.612;2023-05-21T08:00:25;10.45;;;6.28;;
42094;SDS011;27753;55.724;37.612;2023-05-21T08:02:51;6.93;;;5.22;;
42094;SDS011;27753;55.724;37.612;2023-05-21T08:05:17;6.00;;;5.38;;
42094;SDS011;27753;55.724;37.612;2023-05-21T08:07:45;6.55;;;5.63;;
42094;SDS011;27753;55.724;37.612;2023-05-21T08:10:11;7.15;;;5.53;;
42094;SDS011;27753;55.724;37.612;2023-05-21T08:12:37;8.55;;;6.13;;
42094;SDS011;27753;55.724;37.612;2023-05-21T08:15:03;6.85;;;5.20;;
42094;SDS011;27753;55.724;37.612;2023-05-21T08:17:29;6.53;;;5.65;;
42094;SDS011;27753;55.724;37.612;2023-05-21T08:19:55;11.00;;;5.75;;
42094;SDS011;27753;55.724;37.612;2023-05-21T08:22:25;6.68;;;4.78;;
42094;SDS011;27753;55.724;37.612;2023-05-21T08:24:52;8.48;;;5.75;;
42094;SDS011;27753;55.724;37.612;2023-05-21T08:27:18;7.88;;;5.35;;
42094;SDS011;27753;55.724;37.612;2023-05-21T08:29:45;5.70;;;4.82;;
42094;SDS011;27753;55.724;37.612;2023-05-21T08:32:11;7.50;;;5.55;;
42094;SDS011;27753;55.724;37.612;2023-05-21T08:34:37;7.22;;;5.03;;
42094;SDS011;27753;55.724;37.612;2023-05-21T08:37:03;6.97;;;5.20;;
42094;SDS011;27753;55.724;37.612;2023-05-21T08:39:29;5.13;;;4.60;;
42094;SDS011;27753;55.724;37.612;2023-05-21T08:41:56;5.55;;;5.05;;
42094;SDS011;27753;55.724;37.612;2023-05-21T08:44:33;9.15;;;5.45;;
42094;SDS011;27753;55.724;37.612;2023-05-21T08:47:02;5.88;;;5.30;;
42094;SDS011;27753;55.724;37.612;2023-05-21T08:49:31;8.75;;;4.45;;
42094;SDS011;27753;55.724;37.612;2023-05-21T08:51:59;7.05;;;4.68;;
42094;SDS011;27753;55.724;37.612;2023-05-21T08:54:26;5.13;;;3.60;;
42094;SDS011;27753;55.724;37.612;2023-05-21T08:56:52;7.20;;;4.15;;
42094;SDS011;27753;55.724;37.612;2023-05-21T08:59:22;4.60;;;3.20;;
42094;SDS011;27753;55.724;37.612;2023-05-21T09:01:48;3.97;;;3.58;;
42094;SDS011;27753;55.724;37.612;2023-05-21T09:04:14;4.10;;;3.22;;
42094;SDS011;27753;55.724;37.612;2023-05-21T09:06:41;4.45;;;3.25;;
42094;SDS011;27753;55.724;37.612;2023-05-21T09:09:12;5.15;;;3.17;;
42094;SDS011;27753;55.724;37.612;2023-05-21T09:11:44;8.00;;;4.00;;
42094;SDS011;27753;55.724;37.612;2023-05-21T09:14:11;5.35;;;3.65;;
42094;SDS011;27753;55.724;37.612;2023-05-21T09:16:39;5.00;;;3.78;;
42094;SDS011;27753;55.724;37.612;2023-05-21T09:19:05;5.55;;;3.30;;
42094;SDS011;27753;55.724;37.612;2023-05-21T09:21:31;3.73;;;2.83;;
42094;SDS011;27753;55.724;37.612;2023-05-21T09:23:57;9.13;;;3.85;;
42094;SDS011;27753;55.724;37.612;2023-05-21T09:26:24;3.97;;;3.05;;
42094;SDS011;27753;55.724;37.612;2023-05-21T09:28:51;7.80;;;3.00;;
42094;SDS011;27753;55.724;37.612;2023-05-21T09:31:22;6.70;;;4.00;;
42094;SDS011;27753;55.724;37.612;2023-05-21T09:33:49;7.05;;;3.83;;
42094;SDS011;27753;55.724;37.612;2023-05-21T09:36:18;8.70;;;4.20;;
42094;SDS011;27753;55.724;37.612;2023-05-21T09:38:44;5.93;;;3.75;;
42094;SDS011;27753;55.724;37.612;2023-05-21T09:41:12;6.80;;;3.50;;
42094;SDS011;27753;55.724;37.612;2023-05-21T09:43:40;7.90;;;4.93;;
42094;SDS011;27753;55.724;37.612;2023-05-21T09:46:08;6.55;;;4.80;;
42094;SDS011;27753;55.724;37.612;2023-05-21T09:48:38;7.10;;;4.30;;
42094;SDS011;27753;55.724;37.612;2023-05-21T09:54:04;4.53;;;3.42;;
42094;SDS011;27753;55.724;37.612;2023-05-21T09:56:30;3.97;;;3.08;;
42094;SDS011;27753;55.724;37.612;2023-05-21T09:58:57;3.60;;;3.30;;
42094;SDS011;27753;55.724;37.612;2023-05-21T10:01:25;8.25;;;3.17;;
42094;SDS011;27753;55.724;37.612;2023-05-21T10:06:20;7.22;;;3.85;;
42094;SDS011;27753;55.724;37.612;2023-05-21T10:08:48;8.63;;;4.53;;
42094;SDS011;27753;55.724;37.612;2023-05-21T10:11:17;7.00;;;4.30;;
42094;SDS011;27753;55.724;37.612;2023-05-21T10:13:47;7.45;;;4.47;;
42094;SDS011;27753;55.724;37.612;2023-05-21T10:16:17;5.60;;;4.38;;
42094;SDS011;27753;55.724;37.612;2023-05-21T10:18:43;5.35;;;3.97;;
42094;SDS011;27753;55.724;37.612;2023-05-21T10:21:11;5.82;;;3.67;;
42094;SDS011;27753;55.724;37.612;2023-05-21T10:23:37;8.70;;;4.07;;
42094;SDS011;27753;55.724;37.612;2023-05-21T10:26:04;7.10;;;4.40;;
42094;SDS011;27753;55.724;37.612;2023-05-21T10:28:31;6.07;;;4.10;;
42094;SDS011;27753;55.724;37.612;2023-05-21T10:30:58;6.10;;;3.85;;
42094;SDS011;27753;55.724;37.612;2023-05-21T10:33:24;4.30;;;3.78;;
42094;SDS011;27753;55.724;37.612;2023-05-21T10:38:18;5.32;;;4.72;;
42094;SDS011;27753;55.724;37.612;2023-05-21T10:40:46;5.97;;;4.93;;
42094;SDS011;27753;55.724;37.612;2023-05-21T10:59:40;7.40;;;6.28;;
42094;SDS011;27753;55.724;37.612;2023-05-21T11:02:11;7.68;;;6.25;;
42094;SDS011;27753;55.724;37.612;2023-05-21T11:04:39;6.18;;;4.88;;
42094;SDS011;27753;55.724;37.612;2023-05-21T11:07:06;7.82;;;6.63;;
42094;SDS011;27753;55.724;37.612;2023-05-21T11:09:32;6.35;;;5.75;;
42094;SDS011;27753;55.724;37.612;2023-05-21T11:11:58;10.77;;;6.30;;
42094;SDS011;27753;55.724;37.612;2023-05-21T11:14:32;7.75;;;6.70;;
42094;SDS011;27753;55.724;37.612;2023-05-21T11:17:41;8.75;;;5.97;;
42094;SDS011;27753;55.724;37.612;2023-05-21T11:20:11;8.15;;;6.18;;
42094;SDS011;27753;55.724;37.612;2023-05-21T11:22:41;10.90;;;6.88;;
42094;SDS011;27753;55.724;37.612;2023-05-21T11:25:07;11.70;;;5.88;;
42094;SDS011;27753;55.724;37.612;2023-05-21T11:27:39;6.00;;;4.50;;
42094;SDS011;27753;55.724;37.612;2023-05-21T11:30:06;5.65;;;4.00;;
42094;SDS011;27753;55.724;37.612;2023-05-21T11:35:26;5.38;;;4.05;;
42094;SDS011;27753;55.724;37.612;2023-05-21T11:37:52;6.18;;;3.33;;
42094;SDS011;27753;55.724;37.612;2023-05-21T11:40:22;4.07;;;2.83;;
42094;SDS011;27753;55.724;37.612;2023-05-21T11:42:54;4.18;;;2.38;;
42094;SDS011;27753;55.724;37.612;2023-05-21T11:45:21;2.97;;;2.58;;
42094;SDS011;27753;55.724;37.612;2023-05-21T11:47:56;5.85;;;3.15;;
42094;SDS011;27753;55.724;37.612;2023-05-21T11:50:23;4.80;;;2.38;;
42094;SDS011;27753;55.724;37.612;2023-05-21T11:52:50;6.20;;;3.45;;
42094;SDS011;27753;55.724;37.612;2023-05-21T11:55:20;3.65;;;3.03;;
42094;SDS011;27753;55.724;37.612;2023-05-21T11:57:51;5.78;;;3.35;;
42094;SDS011;27753;55.724;37.612;2023-05-21T12:00:18;5.03;;;3.25;;
42094;SDS011;27753;55.724;37.612;2023-05-21T12:02:45;6.55;;;4.38;;
42094;SDS011;27753;55.724;37.612;2023-05-21T12:05:12;5.53;;;3.15;;
42094;SDS011;27753;55.724;37.612;2023-05-21T12:07:38;4.82;;;3.03;;
42094;SDS011;27753;55.724;37.612;2023-05-21T12:10:04;6.35;;;3.05;;
42094;SDS011;27753;55.724;37.612;2023-05-21T12:12:30;8.52;;;3.90;;
42094;SDS011;27753;55.724;37.612;2023-05-21T12:14:57;4.63;;;4.07;;
42094;SDS011;27753;55.724;37.612;2023-05-21T12:17:23;6.82;;;4.18;;
42094;SDS011;27753;55.724;37.612;2023-05-21T12:24:43;7.80;;;6.03;;
42094;SDS011;27753;55.724;37.612;2023-05-21T12:27:10;5.40;;;4.90;;
42094;SDS011;27753;55.724;37.612;2023-05-21T12:29:40;8.68;;;5.72;;
42094;SDS011;27753;55.724;37.612;2023-05-21T12:32:10;8.48;;;5.10;;
42094;SDS011;27753;55.724;37.612;2023-05-21T12:37:28;6.50;;;4.72;;
42094;SDS011;27753;55.724;37.612;2023-05-21T12:39:59;7.75;;;5.10;;
42094;SDS011;27753;55.724;37.612;2023-05-21T12:42:31;10.60;;;6.82;;
42094;SDS011;27753;55.724;37.612;2023-05-21T12:45:06;18.30;;;9.25;;
42094;SDS011;27753;55.724;37.612;2023-05-21T12:47:33;9.98;;;5.78;;
42094;SDS011;27753;55.724;37.612;2023-05-21T12:50:00;7.88;;;4.10;;
42094;SDS011;27753;55.724;37.612;2023-05-21T12:57:21;7.82;;;4.70;;
42094;SDS011;27753;55.724;37.612;2023-05-21T12:59:57;9.65;;;5.28;;
42094;SDS011;27753;55.724;37.612;2023-05-21T13:02:27;6.80;;;5.13;;
42094;SDS011;27753;55.724;37.612;2023-05-21T13:05:06;9.55;;;4.80;;
42094;SDS011;27753;55.724;37.612;2023-05-21T13:07:33;7.57;;;4.75;;
42094;SDS011;27753;55.724;37.612;2023-05-21T13:10:00;12.18;;;5.50;;
42094;SDS011;27753;55.724;37.612;2023-05-21T13:12:28;7.38;;;5.13;;
42094;SDS011;27753;55.724;37.612;2023-05-21T13:14:59;14.00;;;5.60;;
42094;SDS011;27753;55.724;37.612;2023-05-21T13:17:27;8.20;;;3.63;;
42094;SDS011;27753;55.724;37.612;2023-05-21T13:22:38;3.72;;;3.10;;
42094;SDS011;27753;55.724;37.612;2023-05-21T13:25:15;4.18;;;3.65;;
42094;SDS011;27753;55.724;37.612;2023-05-21T13:27:44;5.70;;;4.22;;
42094;SDS011;27753;55.724;37.612;2023-05-21T13:30:11;6.87;;;4.87;;
42094;SDS011;27753;55.724;37.612;2023-05-21T13:32:37;7.07;;;4.10;;
42094;SDS011;27753;55.724;37.612;2023-05-21T13:35:04;5.80;;;5.18;;
42094;SDS011;27753;55.724;37.612;2023-05-21T13:37:30;23.35;;;13.07;;
42094;SDS011;27753;55.724;37.612;2023-05-21T13:39:57;4.78;;;3.72;;
42094;SDS011;27753;55.724;37.612;2023-05-21T13:42:24;14.00;;;8.75;;
42094;SDS011;27753;55.724;37.612;2023-05-21T13:44:52;14.82;;;9.43;;
42094;SDS011;27753;55.724;37.612;2023-05-21T13:47:18;9.40;;;7.97;;
42094;SDS011;27753;55.724;37.612;2023-05-21T13:49:43;7.35;;;3.88;;
42094;SDS011;27753;55.724;37.612;2023-05-21T13:52:10;8.82;;;4.57;;
42094;SDS011;27753;55.724;37.612;2023-05-21T13:54:39;11.40;;;5.78;;
42094;SDS011;27753;55.724;37.612;2023-05-21T13:57:05;12.73;;;5.97;;
42094;SDS011;27753;55.724;37.612;2023-05-21T13:59:31;9.40;;;7.53;;
42094;SDS011;27753;55.724;37.612;2023-05-21T14:01:56;9.63;;;5.90;;
42094;SDS011;27753;55.724;37.612;2023-05-21T14:04:22;5.30;;;4.25;;
42094;SDS011;27753;55.724;37.612;2023-05-21T14:06:48;7.10;;;5.05;;
42094;SDS011;27753;55.724;37.612;2023-05-21T14:09:16;9.98;;;4.88;;
42094;SDS011;27753;55.724;37.612;2023-05-21T14:11:42;9.20;;;4.53;;
42094;SDS011;27753;55.724;37.612;2023-05-21T14:14:08;8.57;;;4.90;;
42094;SDS011;27753;55.724;37.612;2023-05-21T14:16:34;5.63;;;4.55;;
42094;SDS011;27753;55.724;37.612;2023-05-21T14:19:00;9.13;;;4.13;;
42094;SDS011;27753;55.724;37.612;2023-05-21T14:21:25;8.27;;;5.40;;
42094;SDS011;27753;55.724;37.612;2023-05-21T14:23:51;6.22;;;4.28;;
42094;SDS011;27753;55.724;37.612;2023-05-21T14:26:17;6.18;;;3.58;;
42094;SDS011;27753;55.724;37.612;2023-05-21T14:28:43;8.40;;;3.97;;
42094;SDS011;27753;55.724;37.612;2023-05-21T14:31:10;10.55;;;4.82;;
42094;SDS011;27753;55.724;37.612;2023-05-21T14:33:36;7.70;;;5.22;;
42094;SDS011;27753;55.724;37.612;2023-05-21T14:36:03;9.90;;;5.33;;
42094;SDS011;27753;55.724;37.612;2023-05-21T14:38:30;7.07;;;4.22;;
42094;SDS011;27753;55.724;37.612;2023-05-21T14:40:56;7.20;;;4.45;;
42094;SDS011;27753;55.724;37.612;2023-05-21T14:43:22;5.32;;;3.90;;
42094;SDS011;27753;55.724;37.612;2023-05-21T14:45:48;5.32;;;2.90;;
42094;SDS011;27753;55.724;37.612;2023-05-21T14:48:17;5.15;;;3.00;;
42094;SDS011;27753;55.724;37.612;2023-05-21T14:50:47;4.38;;;3.58;;
42094;SDS011;27753;55.724;37.612;2023-05-21T14:53:14;8.73;;;3.83;;
42094;SDS011;27753;55.724;37.612;2023-05-21T14:55:39;3.90;;;3.03;;
42094;SDS011;27753;55.724;37.612;2023-05-21T14:58:05;5.10;;;3.00;;
42094;SDS011;27753;55.724;37.612;2023-05-21T15:00:33;6.20;;;3.90;;
42094;SDS011;27753;55.724;37.612;2023-05-21T15:03:00;6.97;;;3.38;;
42094;SDS011;27753;55.724;37.612;2023-05-21T15:05:27;3.95;;;3.20;;
42094;SDS011;27753;55.724;37.612;2023-05-21T15:07:53;11.48;;;5.15;;
42094;SDS011;27753;55.724;37.612;2023-05-21T15:10:20;8.05;;;4.22;;
42094;SDS011;27753;55.724;37.612;2023-05-21T15:12:46;9.18;;;4.15;;
42094;SDS011;27753;55.724;37.612;2023-05-21T15:15:12;19.45;;;12.60;;
42094;SDS011;27753;55.724;37.612;2023-05-21T15:17:38;19.15;;;10.23;;
42094;SDS011;27753;55.724;37.612;2023-05-21T15:20:04;8.85;;;6.63;;
42094;SDS011;27753;55.724;37.612;2023-05-21T15:22:31;8.73;;;5.90;;
42094;SDS011;27753;55.724;37.612;2023-05-21T15:24:58;7.20;;;4.77;;
42094;SDS011;27753;55.724;37.612;2023-05-21T15:27:24;5.10;;;4.18;;